sensor_id;sensor_type;location;lat;lon;timestamp;P1;durP1;ratioP1;P2;durP2;ratioP2
3487;SDS011;38546;48.170;11.724;2023-02-07T00:01:17;37.20;;;19.00;;
3487;SDS011;38546;48.170;11.724;2023-02-07T00:04:09;40.10;;;17.40;;
3487;SDS011;38546;48.170;11.724;2023-02-07T00:06:59;36.37;;;19.47;;
3487;SDS011;38546;48.170;11.724;2023-02-07T00:09:48;40.17;;;18.30;;
3487;SDS011;38546;48.170;11.724;2023-02-07T00:12:38;36.63;;;19.80;;
3487;SDS011;38546;48.170;11.724;2023-02-07T00:15:28;35.03;;;18.00;;
3487;SDS011;38546;48.170;11.724;2023-02-07T00:18:17;29.70;;;17.87;;
3487;SDS011;38546;48.170;11.724;2023-02-07T00:21:09;34.47;;;17.70;;
3487;SDS011;38546;48.170;11.724;2023-02-07T00:24:02;35.50;;;17.60;;
3487;SDS011;38546;48.170;11.724;2023-02-07T00:26:52;29.93;;;15.97;;
3487;SDS011;38546;48.170;11.724;2023-02-07T00:29:43;29.43;;;15.27;;
3487;SDS011;38546;48.170;11.724;2023-02-07T00:32:32;23.40;;;15.27;;
3487;SDS011;38546;48.170;11.724;2023-02-07T00:35:23;28.50;;;15.07;;
3487;SDS011;38546;48.170;11.724;2023-02-07T00:38:12;33.60;;;17.63;;
3487;SDS011;38546;48.170;11.724;2023-02-07T00:41:02;27.50;;;14.10;;
3487;SDS011;38546;48.170;11.724;2023-02-07T00:43:52;26.77;;;14.93;;
3487;SDS011;38546;48.170;11.724;2023-02-07T00:46:41;33.73;;;16.40;;
3487;SDS011;38546;48.170;11.724;2023-02-07T00:49:31;32.90;;;15.90;;
3487;SDS011;38546;48.170;11.724;2023-02-07T00:52:21;25.90;;;14.20;;
3487;SDS011;38546;48.170;11.724;2023-02-07T00:55:10;27.30;;;14.87;;
3487;SDS011;38546;48.170;11.724;2023-02-07T00:57:59;25.00;;;13.70;;
3487;SDS011;38546;48.170;11.724;2023-02-07T01:00:49;30.53;;;18.33;;
3487;SDS011;38546;48.170;11.724;2023-02-07T01:03:38;32.03;;;17.90;;
3487;SDS011;38546;48.170;11.724;2023-02-07T01:06:28;29.70;;;16.03;;
3487;SDS011;38546;48.170;11.724;2023-02-07T01:09:21;34.07;;;16.27;;
3487;SDS011;38546;48.170;11.724;2023-02-07T01:12:11;31.90;;;15.57;;
3487;SDS011;38546;48.170;11.724;2023-02-07T01:15:01;35.63;;;16.10;;
3487;SDS011;38546;48.170;11.724;2023-02-07T01:17:51;23.50;;;14.40;;
3487;SDS011;38546;48.170;11.724;2023-02-07T01:20:41;29.67;;;16.30;;
3487;SDS011;38546;48.170;11.724;2023-02-07T01:23:31;28.97;;;15.03;;
3487;SDS011;38546;48.170;11.724;2023-02-07T01:26:20;28.47;;;15.37;;
3487;SDS011;38546;48.170;11.724;2023-02-07T01:29:12;31.47;;;16.17;;
3487;SDS011;38546;48.170;11.724;2023-02-07T01:32:03;29.10;;;15.47;;
3487;SDS011;38546;48.170;11.724;2023-02-07T01:34:52;26.40;;;16.17;;
3487;SDS011;38546;48.170;11.724;2023-02-07T01:37:42;30.23;;;17.30;;
3487;SDS011;38546;48.170;11.724;2023-02-07T01:40:34;36.00;;;17.63;;
3487;SDS011;38546;48.170;11.724;2023-02-07T01:43:25;31.60;;;16.03;;
3487;SDS011;38546;48.170;11.724;2023-02-07T01:46:15;34.43;;;15.90;;
3487;SDS011;38546;48.170;11.724;2023-02-07T01:49:08;29.63;;;14.47;;
3487;SDS011;38546;48.170;11.724;2023-02-07T01:52:02;23.00;;;15.87;;
3487;SDS011;38546;48.170;11.724;2023-02-07T01:54:58;31.13;;;15.80;;
3487;SDS011;38546;48.170;11.724;2023-02-07T01:57:52;28.53;;;14.97;;
3487;SDS011;38546;48.170;11.724;2023-02-07T02:00:42;24.43;;;13.33;;
3487;SDS011;38546;48.170;11.724;2023-02-07T02:03:33;22.37;;;13.90;;
3487;SDS011;38546;48.170;11.724;2023-02-07T02:06:29;33.27;;;16.10;;
3487;SDS011;38546;48.170;11.724;2023-02-07T02:09:21;28.70;;;15.27;;
3487;SDS011;38546;48.170;11.724;2023-02-07T02:13:01;35.40;;;16.43;;
3487;SDS011;38546;48.170;11.724;2023-02-07T02:16:23;36.97;;;15.40;;
3487;SDS011;38546;48.170;11.724;2023-02-07T02:21:31;26.63;;;15.20;;
3487;SDS011;38546;48.170;11.724;2023-02-07T02:36:49;26.17;;;15.07;;
3487;SDS011;38546;48.170;11.724;2023-02-07T02:40:16;36.97;;;14.67;;
3487;SDS011;38546;48.170;11.724;2023-02-07T02:44:47;27.73;;;14.83;;
3487;SDS011;38546;48.170;11.724;2023-02-07T02:47:44;27.57;;;14.30;;
3487;SDS011;38546;48.170;11.724;2023-02-07T02:50:36;31.13;;;14.73;;
3487;SDS011;38546;48.170;11.724;2023-02-07T02:53:26;28.13;;;15.97;;
3487;SDS011;38546;48.170;11.724;2023-02-07T02:56:28;27.07;;;15.23;;
3487;SDS011;38546;48.170;11.724;2023-02-07T03:01:07;22.87;;;12.83;;
3487;SDS011;38546;48.170;11.724;2023-02-07T03:11:24;28.70;;;14.67;;
3487;SDS011;38546;48.170;11.724;2023-02-07T03:14:20;23.00;;;13.73;;
3487;SDS011;38546;48.170;11.724;2023-02-07T03:17:25;24.17;;;13.37;;
3487;SDS011;38546;48.170;11.724;2023-02-07T03:27:08;26.03;;;11.80;;
3487;SDS011;38546;48.170;11.724;2023-02-07T03:30:03;22.80;;;12.10;;
3487;SDS011;38546;48.170;11.724;2023-02-07T03:32:58;22.97;;;12.70;;
3487;SDS011;38546;48.170;11.724;2023-02-07T03:36:02;29.43;;;13.17;;
3487;SDS011;38546;48.170;11.724;2023-02-07T03:39:16;30.10;;;13.33;;
3487;SDS011;38546;48.170;11.724;2023-02-07T03:42:08;27.77;;;13.53;;
3487;SDS011;38546;48.170;11.724;2023-02-07T03:45:17;29.63;;;13.43;;
3487;SDS011;38546;48.170;11.724;2023-02-07T03:48:08;20.10;;;11.77;;
3487;SDS011;38546;48.170;11.724;2023-02-07T03:50:58;25.63;;;13.97;;
3487;SDS011;38546;48.170;11.724;2023-02-07T03:53:49;23.80;;;13.80;;
3487;SDS011;38546;48.170;11.724;2023-02-07T03:56:38;30.33;;;15.80;;
3487;SDS011;38546;48.170;11.724;2023-02-07T03:59:28;27.27;;;15.07;;
3487;SDS011;38546;48.170;11.724;2023-02-07T04:02:17;30.20;;;14.07;;
3487;SDS011;38546;48.170;11.724;2023-02-07T04:05:07;21.50;;;11.47;;
3487;SDS011;38546;48.170;11.724;2023-02-07T04:07:57;21.37;;;11.23;;
3487;SDS011;38546;48.170;11.724;2023-02-07T04:10:55;24.40;;;12.20;;
3487;SDS011;38546;48.170;11.724;2023-02-07T04:13:46;22.90;;;12.33;;
3487;SDS011;38546;48.170;11.724;2023-02-07T04:16:36;23.77;;;11.60;;
3487;SDS011;38546;48.170;11.724;2023-02-07T04:19:25;23.33;;;11.90;;
3487;SDS011;38546;48.170;11.724;2023-02-07T04:22:15;21.10;;;11.37;;
3487;SDS011;38546;48.170;11.724;2023-02-07T04:25:05;27.20;;;12.10;;
3487;SDS011;38546;48.170;11.724;2023-02-07T04:27:55;26.33;;;11.77;;
3487;SDS011;38546;48.170;11.724;2023-02-07T04:30:45;21.87;;;11.80;;
3487;SDS011;38546;48.170;11.724;2023-02-07T04:33:34;21.93;;;10.90;;
3487;SDS011;38546;48.170;11.724;2023-02-07T04:36:24;23.27;;;11.17;;
3487;SDS011;38546;48.170;11.724;2023-02-07T04:39:16;21.90;;;12.60;;
3487;SDS011;38546;48.170;11.724;2023-02-07T04:42:05;24.93;;;10.33;;
3487;SDS011;38546;48.170;11.724;2023-02-07T04:44:55;17.70;;;11.40;;
3487;SDS011;38546;48.170;11.724;2023-02-07T04:47:45;20.70;;;12.20;;
3487;SDS011;38546;48.170;11.724;2023-02-07T04:50:35;17.90;;;10.60;;
3487;SDS011;38546;48.170;11.724;2023-02-07T04:53:25;31.20;;;13.10;;
3487;SDS011;38546;48.170;11.724;2023-02-07T04:56:14;23.00;;;13.80;;
3487;SDS011;38546;48.170;11.724;2023-02-07T04:59:03;22.37;;;11.83;;
3487;SDS011;38546;48.170;11.724;2023-02-07T05:01:53;21.70;;;11.33;;
3487;SDS011;38546;48.170;11.724;2023-02-07T05:04:42;24.47;;;13.53;;
3487;SDS011;38546;48.170;11.724;2023-02-07T05:07:32;29.00;;;15.07;;
3487;SDS011;38546;48.170;11.724;2023-02-07T05:10:21;17.73;;;10.57;;
3487;SDS011;38546;48.170;11.724;2023-02-07T05:13:11;24.90;;;14.17;;
3487;SDS011;38546;48.170;11.724;2023-02-07T05:16:01;25.97;;;14.33;;
3487;SDS011;38546;48.170;11.724;2023-02-07T05:18:51;21.70;;;13.73;;
3487;SDS011;38546;48.170;11.724;2023-02-07T05:21:40;25.33;;;14.00;;
3487;SDS011;38546;48.170;11.724;2023-02-07T05:24:31;26.93;;;13.40;;
3487;SDS011;38546;48.170;11.724;2023-02-07T05:27:20;21.20;;;11.90;;
3487;SDS011;38546;48.170;11.724;2023-02-07T05:30:10;27.23;;;13.83;;
3487;SDS011;38546;48.170;11.724;2023-02-07T05:33:00;31.50;;;15.93;;
3487;SDS011;38546;48.170;11.724;2023-02-07T05:35:53;27.03;;;14.60;;
3487;SDS011;38546;48.170;11.724;2023-02-07T05:38:43;26.40;;;13.70;;
3487;SDS011;38546;48.170;11.724;2023-02-07T05:41:33;20.70;;;11.80;;
3487;SDS011;38546;48.170;11.724;2023-02-07T05:44:22;21.67;;;11.63;;
3487;SDS011;38546;48.170;11.724;2023-02-07T05:47:11;22.00;;;13.00;;
3487;SDS011;38546;48.170;11.724;2023-02-07T05:50:02;19.17;;;11.60;;
3487;SDS011;38546;48.170;11.724;2023-02-07T05:52:52;15.67;;;10.50;;
3487;SDS011;38546;48.170;11.724;2023-02-07T05:55:42;19.30;;;10.60;;
3487;SDS011;38546;48.170;11.724;2023-02-07T05:58:31;21.63;;;10.40;;
3487;SDS011;38546;48.170;11.724;2023-02-07T06:01:20;17.40;;;10.50;;
3487;SDS011;38546;48.170;11.724;2023-02-07T06:04:10;25.43;;;12.30;;
3487;SDS011;38546;48.170;11.724;2023-02-07T06:06:59;20.03;;;11.83;;
3487;SDS011;38546;48.170;11.724;2023-02-07T06:09:48;17.60;;;11.63;;
3487;SDS011;38546;48.170;11.724;2023-02-07T06:12:38;18.00;;;10.77;;
3487;SDS011;38546;48.170;11.724;2023-02-07T06:15:27;35.17;;;14.00;;
3487;SDS011;38546;48.170;11.724;2023-02-07T06:18:17;19.67;;;10.77;;
3487;SDS011;38546;48.170;11.724;2023-02-07T06:21:07;27.20;;;13.40;;
3487;SDS011;38546;48.170;11.724;2023-02-07T06:23:56;29.93;;;12.53;;
3487;SDS011;38546;48.170;11.724;2023-02-07T06:26:46;24.47;;;13.37;;
3487;SDS011;38546;48.170;11.724;2023-02-07T06:29:35;23.40;;;14.20;;
3487;SDS011;38546;48.170;11.724;2023-02-07T06:32:25;21.43;;;10.87;;
3487;SDS011;38546;48.170;11.724;2023-02-07T06:35:14;19.90;;;11.80;;
3487;SDS011;38546;48.170;11.724;2023-02-07T06:38:03;20.77;;;10.80;;
3487;SDS011;38546;48.170;11.724;2023-02-07T06:40:52;22.47;;;12.70;;
3487;SDS011;38546;48.170;11.724;2023-02-07T06:43:42;26.77;;;11.63;;
3487;SDS011;38546;48.170;11.724;2023-02-07T06:46:31;25.63;;;12.23;;
3487;SDS011;38546;48.170;11.724;2023-02-07T06:49:21;18.47;;;11.47;;
3487;SDS011;38546;48.170;11.724;2023-02-07T06:52:10;19.87;;;12.03;;
3487;SDS011;38546;48.170;11.724;2023-02-07T06:55:00;20.13;;;12.13;;
3487;SDS011;38546;48.170;11.724;2023-02-07T06:57:49;22.87;;;11.50;;
3487;SDS011;38546;48.170;11.724;2023-02-07T07:00:38;20.80;;;11.23;;
3487;SDS011;38546;48.170;11.724;2023-02-07T07:03:28;18.70;;;10.40;;
3487;SDS011;38546;48.170;11.724;2023-02-07T07:06:17;22.30;;;13.23;;
3487;SDS011;38546;48.170;11.724;2023-02-07T07:09:07;22.67;;;12.33;;
3487;SDS011;38546;48.170;11.724;2023-02-07T07:11:56;21.57;;;10.90;;
3487;SDS011;38546;48.170;11.724;2023-02-07T07:14:45;31.77;;;12.70;;
3487;SDS011;38546;48.170;11.724;2023-02-07T07:17:34;34.93;;;14.73;;
3487;SDS011;38546;48.170;11.724;2023-02-07T07:20:24;28.23;;;13.57;;
3487;SDS011;38546;48.170;11.724;2023-02-07T07:23:13;19.00;;;11.63;;
3487;SDS011;38546;48.170;11.724;2023-02-07T07:26:03;17.70;;;12.10;;
3487;SDS011;38546;48.170;11.724;2023-02-07T07:28:52;20.67;;;11.70;;
3487;SDS011;38546;48.170;11.724;2023-02-07T07:31:45;27.30;;;12.20;;
3487;SDS011;38546;48.170;11.724;2023-02-07T07:34:35;18.10;;;11.13;;
3487;SDS011;38546;48.170;11.724;2023-02-07T07:37:24;29.90;;;13.00;;
3487;SDS011;38546;48.170;11.724;2023-02-07T07:40:13;21.20;;;12.50;;
3487;SDS011;38546;48.170;11.724;2023-02-07T07:43:02;25.90;;;12.50;;
3487;SDS011;38546;48.170;11.724;2023-02-07T07:45:55;22.73;;;12.20;;
3487;SDS011;38546;48.170;11.724;2023-02-07T07:48:56;24.90;;;12.60;;
3487;SDS011;38546;48.170;11.724;2023-02-07T07:51:46;25.03;;;12.40;;
3487;SDS011;38546;48.170;11.724;2023-02-07T07:54:35;22.50;;;11.43;;
3487;SDS011;38546;48.170;11.724;2023-02-07T07:57:24;23.23;;;11.57;;
3487;SDS011;38546;48.170;11.724;2023-02-07T08:00:15;25.97;;;11.57;;
3487;SDS011;38546;48.170;11.724;2023-02-07T08:03:05;31.33;;;13.00;;
3487;SDS011;38546;48.170;11.724;2023-02-07T08:05:55;21.00;;;12.37;;
3487;SDS011;38546;48.170;11.724;2023-02-07T08:08:45;24.00;;;12.93;;
3487;SDS011;38546;48.170;11.724;2023-02-07T08:11:35;19.73;;;12.33;;
3487;SDS011;38546;48.170;11.724;2023-02-07T08:14:25;20.13;;;11.33;;
3487;SDS011;38546;48.170;11.724;2023-02-07T08:17:14;24.73;;;12.20;;
3487;SDS011;38546;48.170;11.724;2023-02-07T08:20:04;20.90;;;12.57;;
3487;SDS011;38546;48.170;11.724;2023-02-07T08:22:55;24.70;;;12.93;;
3487;SDS011;38546;48.170;11.724;2023-02-07T08:25:46;28.07;;;13.00;;
3487;SDS011;38546;48.170;11.724;2023-02-07T08:28:38;22.40;;;11.40;;
3487;SDS011;38546;48.170;11.724;2023-02-07T08:31:27;29.77;;;15.03;;
3487;SDS011;38546;48.170;11.724;2023-02-07T08:34:17;29.50;;;13.67;;
3487;SDS011;38546;48.170;11.724;2023-02-07T08:37:11;35.23;;;14.30;;
3487;SDS011;38546;48.170;11.724;2023-02-07T08:40:01;19.77;;;13.13;;
3487;SDS011;38546;48.170;11.724;2023-02-07T08:43:05;19.40;;;12.37;;
3487;SDS011;38546;48.170;11.724;2023-02-07T08:45:59;25.67;;;14.60;;
3487;SDS011;38546;48.170;11.724;2023-02-07T08:48:49;26.83;;;15.43;;
3487;SDS011;38546;48.170;11.724;2023-02-07T08:51:39;27.90;;;14.27;;
3487;SDS011;38546;48.170;11.724;2023-02-07T08:54:30;31.13;;;14.80;;
3487;SDS011;38546;48.170;11.724;2023-02-07T08:57:20;26.43;;;14.27;;
3487;SDS011;38546;48.170;11.724;2023-02-07T09:00:13;22.00;;;12.97;;
3487;SDS011;38546;48.170;11.724;2023-02-07T09:03:04;32.60;;;13.30;;
3487;SDS011;38546;48.170;11.724;2023-02-07T09:05:58;25.80;;;14.60;;
3487;SDS011;38546;48.170;11.724;2023-02-07T09:08:47;30.37;;;14.47;;
3487;SDS011;38546;48.170;11.724;2023-02-07T09:11:36;34.70;;;15.67;;
3487;SDS011;38546;48.170;11.724;2023-02-07T09:14:26;26.63;;;14.87;;
3487;SDS011;38546;48.170;11.724;2023-02-07T09:17:15;21.10;;;13.70;;
3487;SDS011;38546;48.170;11.724;2023-02-07T09:20:05;25.87;;;14.60;;
3487;SDS011;38546;48.170;11.724;2023-02-07T09:22:55;34.50;;;16.23;;
3487;SDS011;38546;48.170;11.724;2023-02-07T09:26:03;25.97;;;14.83;;
3487;SDS011;38546;48.170;11.724;2023-02-07T09:28:56;32.13;;;14.90;;
3487;SDS011;38546;48.170;11.724;2023-02-07T09:31:45;28.33;;;16.03;;
3487;SDS011;38546;48.170;11.724;2023-02-07T09:34:35;28.70;;;15.07;;
3487;SDS011;38546;48.170;11.724;2023-02-07T09:37:25;26.77;;;13.60;;
3487;SDS011;38546;48.170;11.724;2023-02-07T09:40:15;22.07;;;14.00;;
3487;SDS011;38546;48.170;11.724;2023-02-07T09:43:21;30.67;;;14.60;;
3487;SDS011;38546;48.170;11.724;2023-02-07T09:47:13;27.77;;;14.47;;
3487;SDS011;38546;48.170;11.724;2023-02-07T09:50:12;28.10;;;14.53;;
3487;SDS011;38546;48.170;11.724;2023-02-07T09:59:49;24.90;;;13.30;;
3487;SDS011;38546;48.170;11.724;2023-02-07T10:02:57;25.30;;;13.60;;
3487;SDS011;38546;48.170;11.724;2023-02-07T10:06:03;26.90;;;13.97;;
3487;SDS011;38546;48.170;11.724;2023-02-07T10:09:04;25.40;;;13.93;;
3487;SDS011;38546;48.170;11.724;2023-02-07T10:12:22;27.13;;;14.37;;
3487;SDS011;38546;48.170;11.724;2023-02-07T10:26:28;26.17;;;13.00;;
3487;SDS011;38546;48.170;11.724;2023-02-07T10:30:21;19.27;;;12.00;;
3487;SDS011;38546;48.170;11.724;2023-02-07T10:33:19;28.20;;;12.10;;
3487;SDS011;38546;48.170;11.724;2023-02-07T10:36:13;29.60;;;13.30;;
3487;SDS011;38546;48.170;11.724;2023-02-07T10:39:15;24.30;;;14.07;;
3487;SDS011;38546;48.170;11.724;2023-02-07T11:41:25;17.83;;;10.57;;
3487;SDS011;38546;48.170;11.724;2023-02-07T11:44:22;15.67;;;8.80;;
3487;SDS011;38546;48.170;11.724;2023-02-07T11:47:18;11.37;;;7.77;;
3487;SDS011;38546;48.170;11.724;2023-02-07T11:50:17;13.10;;;8.50;;
3487;SDS011;38546;48.170;11.724;2023-02-07T11:53:27;15.20;;;7.70;;
3487;SDS011;38546;48.170;11.724;2023-02-07T11:56:47;12.57;;;6.97;;
3487;SDS011;38546;48.170;11.724;2023-02-07T11:59:48;10.10;;;6.30;;
3487;SDS011;38546;48.170;11.724;2023-02-07T12:03:06;10.97;;;5.53;;
3487;SDS011;38546;48.170;11.724;2023-02-07T12:06:12;8.80;;;5.37;;
3487;SDS011;38546;48.170;11.724;2023-02-07T12:09:11;8.63;;;5.90;;
3487;SDS011;38546;48.170;11.724;2023-02-07T12:17:29;9.73;;;5.40;;
3487;SDS011;38546;48.170;11.724;2023-02-07T12:20:52;8.13;;;4.97;;
3487;SDS011;38546;48.170;11.724;2023-02-07T12:24:04;10.10;;;6.30;;
3487;SDS011;38546;48.170;11.724;2023-02-07T12:27:14;5.20;;;4.57;;
3487;SDS011;38546;48.170;11.724;2023-02-07T12:30:19;6.40;;;4.47;;
3487;SDS011;38546;48.170;11.724;2023-02-07T12:36:49;6.97;;;6.00;;
3487;SDS011;38546;48.170;11.724;2023-02-07T12:50:00;8.20;;;5.97;;
3487;SDS011;38546;48.170;11.724;2023-02-07T12:53:20;12.33;;;5.67;;
3487;SDS011;38546;48.170;11.724;2023-02-07T12:56:37;10.37;;;5.73;;
3487;SDS011;38546;48.170;11.724;2023-02-07T13:03:41;8.10;;;5.80;;
3487;SDS011;38546;48.170;11.724;2023-02-07T13:13:10;15.13;;;6.87;;
3487;SDS011;38546;48.170;11.724;2023-02-07T13:16:13;11.10;;;6.70;;
3487;SDS011;38546;48.170;11.724;2023-02-07T13:23:42;9.27;;;6.60;;
3487;SDS011;38546;48.170;11.724;2023-02-07T13:26:34;13.53;;;7.63;;
3487;SDS011;38546;48.170;11.724;2023-02-07T13:29:24;14.43;;;6.73;;
3487;SDS011;38546;48.170;11.724;2023-02-07T13:32:19;12.40;;;6.40;;
3487;SDS011;38546;48.170;11.724;2023-02-07T13:35:14;12.97;;;7.40;;
3487;SDS011;38546;48.170;11.724;2023-02-07T13:43:12;15.60;;;7.80;;
3487;SDS011;38546;48.170;11.724;2023-02-07T13:47:11;18.83;;;9.13;;
3487;SDS011;38546;48.170;11.724;2023-02-07T13:59:37;25.17;;;11.40;;
3487;SDS011;38546;48.170;11.724;2023-02-07T14:02:27;18.43;;;9.93;;
3487;SDS011;38546;48.170;11.724;2023-02-07T14:05:25;21.20;;;11.27;;
3487;SDS011;38546;48.170;11.724;2023-02-07T14:08:21;19.90;;;9.90;;
3487;SDS011;38546;48.170;11.724;2023-02-07T14:11:28;19.90;;;11.13;;
3487;SDS011;38546;48.170;11.724;2023-02-07T14:17:54;15.23;;;10.53;;
3487;SDS011;38546;48.170;11.724;2023-02-07T14:20:59;23.93;;;10.93;;
3487;SDS011;38546;48.170;11.724;2023-02-07T14:27:35;20.07;;;10.50;;
3487;SDS011;38546;48.170;11.724;2023-02-07T14:30:34;20.80;;;11.20;;
3487;SDS011;38546;48.170;11.724;2023-02-07T14:33:34;20.33;;;8.70;;
3487;SDS011;38546;48.170;11.724;2023-02-07T14:36:24;19.77;;;9.60;;
3487;SDS011;38546;48.170;11.724;2023-02-07T14:39:25;17.40;;;9.10;;
3487;SDS011;38546;48.170;11.724;2023-02-07T14:42:21;16.33;;;8.43;;
3487;SDS011;38546;48.170;11.724;2023-02-07T14:45:17;13.23;;;8.63;;
3487;SDS011;38546;48.170;11.724;2023-02-07T14:48:28;20.73;;;10.20;;
3487;SDS011;38546;48.170;11.724;2023-02-07T14:58:17;18.77;;;9.47;;
3487;SDS011;38546;48.170;11.724;2023-02-07T15:01:30;20.60;;;10.60;;
3487;SDS011;38546;48.170;11.724;2023-02-07T15:04:20;22.50;;;11.00;;
3487;SDS011;38546;48.170;11.724;2023-02-07T15:07:12;29.13;;;13.83;;
3487;SDS011;38546;48.170;11.724;2023-02-07T15:10:11;25.17;;;11.27;;
3487;SDS011;38546;48.170;11.724;2023-02-07T15:13:16;20.03;;;11.17;;
3487;SDS011;38546;48.170;11.724;2023-02-07T15:16:18;18.37;;;9.90;;
3487;SDS011;38546;48.170;11.724;2023-02-07T15:19:30;23.87;;;10.20;;
3487;SDS011;38546;48.170;11.724;2023-02-07T15:22:27;23.47;;;11.77;;
3487;SDS011;38546;48.170;11.724;2023-02-07T15:25:17;27.13;;;13.27;;
3487;SDS011;38546;48.170;11.724;2023-02-07T15:28:23;27.90;;;11.57;;
3487;SDS011;38546;48.170;11.724;2023-02-07T15:31:17;20.90;;;11.03;;
3487;SDS011;38546;48.170;11.724;2023-02-07T15:34:11;20.77;;;10.67;;
3487;SDS011;38546;48.170;11.724;2023-02-07T15:42:31;24.90;;;10.30;;
3487;SDS011;38546;48.170;11.724;2023-02-07T15:45:25;23.87;;;11.87;;
3487;SDS011;38546;48.170;11.724;2023-02-07T15:48:20;20.70;;;11.37;;
3487;SDS011;38546;48.170;11.724;2023-02-07T15:51:10;20.50;;;11.80;;
3487;SDS011;38546;48.170;11.724;2023-02-07T15:54:01;25.57;;;10.60;;
3487;SDS011;38546;48.170;11.724;2023-02-07T15:56:53;19.37;;;11.00;;
3487;SDS011;38546;48.170;11.724;2023-02-07T15:59:48;18.40;;;9.27;;
3487;SDS011;38546;48.170;11.724;2023-02-07T16:02:40;18.47;;;10.43;;
3487;SDS011;38546;48.170;11.724;2023-02-07T16:05:37;20.60;;;10.40;;
3487;SDS011;38546;48.170;11.724;2023-02-07T16:08:30;23.70;;;10.77;;
3487;SDS011;38546;48.170;11.724;2023-02-07T16:11:36;17.33;;;9.60;;
3487;SDS011;38546;48.170;11.724;2023-02-07T16:14:27;23.10;;;11.57;;
3487;SDS011;38546;48.170;11.724;2023-02-07T16:17:22;17.27;;;9.90;;
3487;SDS011;38546;48.170;11.724;2023-02-07T16:20:14;17.47;;;9.30;;
3487;SDS011;38546;48.170;11.724;2023-02-07T16:23:05;19.10;;;9.50;;
3487;SDS011;38546;48.170;11.724;2023-02-07T16:25:57;21.70;;;10.67;;
3487;SDS011;38546;48.170;11.724;2023-02-07T16:28:48;19.40;;;11.20;;
3487;SDS011;38546;48.170;11.724;2023-02-07T16:31:38;19.50;;;11.23;;
3487;SDS011;38546;48.170;11.724;2023-02-07T16:34:27;24.80;;;11.07;;
3487;SDS011;38546;48.170;11.724;2023-02-07T16:37:16;21.73;;;11.03;;
3487;SDS011;38546;48.170;11.724;2023-02-07T16:40:06;30.33;;;12.10;;
3487;SDS011;38546;48.170;11.724;2023-02-07T16:42:58;23.37;;;11.70;;
3487;SDS011;38546;48.170;11.724;2023-02-07T16:45:50;24.63;;;12.70;;
3487;SDS011;38546;48.170;11.724;2023-02-07T16:48:39;22.50;;;11.37;;
3487;SDS011;38546;48.170;11.724;2023-02-07T16:51:28;22.40;;;11.00;;
3487;SDS011;38546;48.170;11.724;2023-02-07T16:54:17;27.13;;;12.73;;
3487;SDS011;38546;48.170;11.724;2023-02-07T16:57:08;24.80;;;11.57;;
3487;SDS011;38546;48.170;11.724;2023-02-07T16:59:59;28.50;;;12.23;;
3487;SDS011;38546;48.170;11.724;2023-02-07T17:02:49;24.10;;;11.23;;
3487;SDS011;38546;48.170;11.724;2023-02-07T17:05:39;24.10;;;12.37;;
3487;SDS011;38546;48.170;11.724;2023-02-07T17:08:29;27.40;;;11.20;;
3487;SDS011;38546;48.170;11.724;2023-02-07T17:11:19;25.33;;;11.87;;
3487;SDS011;38546;48.170;11.724;2023-02-07T17:14:13;16.33;;;10.50;;
3487;SDS011;38546;48.170;11.724;2023-02-07T17:17:03;28.17;;;11.50;;
3487;SDS011;38546;48.170;11.724;2023-02-07T17:19:52;24.80;;;11.90;;
3487;SDS011;38546;48.170;11.724;2023-02-07T17:22:41;14.80;;;10.03;;
3487;SDS011;38546;48.170;11.724;2023-02-07T17:25:30;23.57;;;11.27;;
3487;SDS011;38546;48.170;11.724;2023-02-07T17:28:20;20.53;;;10.70;;
3487;SDS011;38546;48.170;11.724;2023-02-07T17:31:10;22.80;;;10.20;;
3487;SDS011;38546;48.170;11.724;2023-02-07T17:34:00;16.50;;;9.83;;
3487;SDS011;38546;48.170;11.724;2023-02-07T17:36:50;21.23;;;11.20;;
3487;SDS011;38546;48.170;11.724;2023-02-07T17:39:39;20.40;;;10.87;;
3487;SDS011;38546;48.170;11.724;2023-02-07T17:42:28;22.97;;;11.27;;
3487;SDS011;38546;48.170;11.724;2023-02-07T17:45:17;25.20;;;11.07;;
3487;SDS011;38546;48.170;11.724;2023-02-07T17:48:08;25.87;;;11.57;;
3487;SDS011;38546;48.170;11.724;2023-02-07T17:50:59;25.43;;;11.90;;
3487;SDS011;38546;48.170;11.724;2023-02-07T17:53:49;27.03;;;11.10;;
3487;SDS011;38546;48.170;11.724;2023-02-07T17:56:38;23.90;;;11.20;;
3487;SDS011;38546;48.170;11.724;2023-02-07T17:59:28;27.03;;;12.60;;
3487;SDS011;38546;48.170;11.724;2023-02-07T18:02:17;25.63;;;11.53;;
3487;SDS011;38546;48.170;11.724;2023-02-07T18:05:06;20.93;;;10.40;;
3487;SDS011;38546;48.170;11.724;2023-02-07T18:07:57;21.90;;;11.40;;
3487;SDS011;38546;48.170;11.724;2023-02-07T18:10:46;23.33;;;11.20;;
3487;SDS011;38546;48.170;11.724;2023-02-07T18:13:36;25.70;;;11.43;;
3487;SDS011;38546;48.170;11.724;2023-02-07T18:16:26;21.73;;;10.97;;
3487;SDS011;38546;48.170;11.724;2023-02-07T18:19:15;30.73;;;12.27;;
3487;SDS011;38546;48.170;11.724;2023-02-07T18:22:05;19.33;;;10.80;;
3487;SDS011;38546;48.170;11.724;2023-02-07T18:24:55;21.43;;;11.63;;
3487;SDS011;38546;48.170;11.724;2023-02-07T18:27:44;27.83;;;10.40;;
3487;SDS011;38546;48.170;11.724;2023-02-07T18:30:35;23.93;;;11.60;;
3487;SDS011;38546;48.170;11.724;2023-02-07T18:33:26;16.20;;;9.67;;
3487;SDS011;38546;48.170;11.724;2023-02-07T18:36:16;18.97;;;10.60;;
3487;SDS011;38546;48.170;11.724;2023-02-07T18:39:06;26.63;;;10.03;;
3487;SDS011;38546;48.170;11.724;2023-02-07T18:41:59;22.67;;;10.60;;
3487;SDS011;38546;48.170;11.724;2023-02-07T18:44:48;17.00;;;10.20;;
3487;SDS011;38546;48.170;11.724;2023-02-07T18:47:38;22.20;;;10.07;;
3487;SDS011;38546;48.170;11.724;2023-02-07T18:50:28;30.67;;;11.30;;
3487;SDS011;38546;48.170;11.724;2023-02-07T18:53:17;19.00;;;9.70;;
3487;SDS011;38546;48.170;11.724;2023-02-07T18:56:08;21.80;;;10.73;;
3487;SDS011;38546;48.170;11.724;2023-02-07T18:59:01;26.70;;;10.10;;
3487;SDS011;38546;48.170;11.724;2023-02-07T19:01:52;30.43;;;11.40;;
3487;SDS011;38546;48.170;11.724;2023-02-07T19:04:41;19.30;;;10.00;;
3487;SDS011;38546;48.170;11.724;2023-02-07T19:07:31;19.47;;;11.00;;
3487;SDS011;38546;48.170;11.724;2023-02-07T19:10:20;21.00;;;11.27;;
3487;SDS011;38546;48.170;11.724;2023-02-07T19:13:09;19.50;;;10.30;;
3487;SDS011;38546;48.170;11.724;2023-02-07T19:16:02;21.07;;;11.60;;
3487;SDS011;38546;48.170;11.724;2023-02-07T19:18:55;26.60;;;12.90;;
3487;SDS011;38546;48.170;11.724;2023-02-07T19:21:45;18.37;;;10.67;;
3487;SDS011;38546;48.170;11.724;2023-02-07T19:24:35;20.67;;;10.07;;
3487;SDS011;38546;48.170;11.724;2023-02-07T19:27:24;20.43;;;10.37;;
3487;SDS011;38546;48.170;11.724;2023-02-07T19:30:13;15.67;;;10.47;;
3487;SDS011;38546;48.170;11.724;2023-02-07T19:33:03;24.90;;;10.70;;
3487;SDS011;38546;48.170;11.724;2023-02-07T19:35:52;17.17;;;9.77;;
3487;SDS011;38546;48.170;11.724;2023-02-07T19:38:42;16.87;;;10.20;;
3487;SDS011;38546;48.170;11.724;2023-02-07T19:41:31;19.67;;;9.13;;
3487;SDS011;38546;48.170;11.724;2023-02-07T19:44:20;19.43;;;9.80;;
3487;SDS011;38546;48.170;11.724;2023-02-07T19:47:09;16.43;;;10.33;;
3487;SDS011;38546;48.170;11.724;2023-02-07T19:49:58;27.77;;;10.23;;
3487;SDS011;38546;48.170;11.724;2023-02-07T19:52:47;24.97;;;11.63;;
3487;SDS011;38546;48.170;11.724;2023-02-07T19:55:37;15.83;;;9.40;;